sensor_id;sensor_type;location;lat;lon;timestamp;P1;durP1;ratioP1;P2;durP2;ratioP2
35418;SDS011;21525;41.240;16.500;2023-08-30T00:00:56;9.27;;;2.42;;
35418;SDS011;21525;41.240;16.500;2023-08-30T00:03:22;10.07;;;2.78;;
35418;SDS011;21525;41.240;16.500;2023-08-30T00:05:47;10.77;;;2.53;;
35418;SDS011;21525;41.240;16.500;2023-08-30T00:08:13;9.15;;;2.50;;
35418;SDS011;21525;41.240;16.500;2023-08-30T00:10:44;6.85;;;2.22;;
35418;SDS011;21525;41.240;16.500;2023-08-30T00:13:10;9.98;;;2.80;;
35418;SDS011;21525;41.240;16.500;2023-08-30T00:15:36;9.80;;;2.30;;
35418;SDS011;21525;41.240;16.500;2023-08-30T00:18:02;11.20;;;2.35;;
35418;SDS011;21525;41.240;16.500;2023-08-30T00:20:28;8.68;;;2.50;;
35418;SDS011;21525;41.240;16.500;2023-08-30T00:22:53;6.85;;;2.22;;
35418;SDS011;21525;41.240;16.500;2023-08-30T00:25:20;7.90;;;2.47;;
35418;SDS011;21525;41.240;16.500;2023-08-30T00:27:45;7.88;;;3.22;;
35418;SDS011;21525;41.240;16.500;2023-08-30T00:30:11;6.25;;;2.03;;
35418;SDS011;21525;41.240;16.500;2023-08-30T00:32:37;4.78;;;1.73;;
35418;SDS011;21525;41.240;16.500;2023-08-30T00:35:03;7.03;;;2.35;;
35418;SDS011;21525;41.240;16.500;2023-08-30T00:37:29;9.05;;;2.17;;
35418;SDS011;21525;41.240;16.500;2023-08-30T00:39:55;9.27;;;2.53;;
35418;SDS011;21525;41.240;16.500;2023-08-30T00:42:21;8.30;;;2.20;;
35418;SDS011;21525;41.240;16.500;2023-08-30T00:44:48;8.05;;;2.08;;
35418;SDS011;21525;41.240;16.500;2023-08-30T00:47:14;8.82;;;2.63;;
35418;SDS011;21525;41.240;16.500;2023-08-30T00:49:40;9.82;;;3.20;;
35418;SDS011;21525;41.240;16.500;2023-08-30T00:52:07;7.43;;;2.33;;
35418;SDS011;21525;41.240;16.500;2023-08-30T00:54:34;11.75;;;2.70;;
35418;SDS011;21525;41.240;16.500;2023-08-30T00:57:01;9.00;;;2.30;;
35418;SDS011;21525;41.240;16.500;2023-08-30T00:59:28;8.27;;;2.17;;
35418;SDS011;21525;41.240;16.500;2023-08-30T01:01:57;5.55;;;2.08;;
35418;SDS011;21525;41.240;16.500;2023-08-30T01:04:24;8.75;;;2.22;;
35418;SDS011;21525;41.240;16.500;2023-08-30T01:06:50;12.32;;;2.45;;
35418;SDS011;21525;41.240;16.500;2023-08-30T01:09:16;7.88;;;2.20;;
35418;SDS011;21525;41.240;16.500;2023-08-30T01:12:00;5.47;;;2.40;;
35418;SDS011;21525;41.240;16.500;2023-08-30T01:17:35;7.50;;;2.42;;
35418;SDS011;21525;41.240;16.500;2023-08-30T01:20:05;9.02;;;2.47;;
35418;SDS011;21525;41.240;16.500;2023-08-30T01:22:57;8.63;;;2.03;;
35418;SDS011;21525;41.240;16.500;2023-08-30T01:25:35;7.18;;;1.88;;
35418;SDS011;21525;41.240;16.500;2023-08-30T01:28:22;8.10;;;2.58;;
35418;SDS011;21525;41.240;16.500;2023-08-30T01:30:52;10.13;;;2.30;;
35418;SDS011;21525;41.240;16.500;2023-08-30T01:33:23;10.77;;;2.65;;
35418;SDS011;21525;41.240;16.500;2023-08-30T01:35:56;10.45;;;2.47;;
35418;SDS011;21525;41.240;16.500;2023-08-30T01:38:29;13.18;;;2.58;;
35418;SDS011;21525;41.240;16.500;2023-08-30T01:40:57;9.02;;;2.75;;
35418;SDS011;21525;41.240;16.500;2023-08-30T01:43:28;11.30;;;2.42;;
35418;SDS011;21525;41.240;16.500;2023-08-30T01:45:55;11.45;;;2.53;;
35418;SDS011;21525;41.240;16.500;2023-08-30T01:48:22;8.82;;;2.05;;
35418;SDS011;21525;41.240;16.500;2023-08-30T01:50:49;12.13;;;2.75;;
35418;SDS011;21525;41.240;16.500;2023-08-30T01:53:15;5.50;;;2.47;;
35418;SDS011;21525;41.240;16.500;2023-08-30T01:55:42;9.60;;;2.67;;
35418;SDS011;21525;41.240;16.500;2023-08-30T01:58:08;7.45;;;2.63;;
35418;SDS011;21525;41.240;16.500;2023-08-30T02:00:35;9.80;;;2.50;;
35418;SDS011;21525;41.240;16.500;2023-08-30T02:03:11;9.38;;;2.20;;
35418;SDS011;21525;41.240;16.500;2023-08-30T02:05:43;11.07;;;2.75;;
35418;SDS011;21525;41.240;16.500;2023-08-30T02:08:17;8.55;;;2.50;;
35418;SDS011;21525;41.240;16.500;2023-08-30T02:10:51;9.63;;;2.28;;
35418;SDS011;21525;41.240;16.500;2023-08-30T02:13:22;8.80;;;2.50;;
35418;SDS011;21525;41.240;16.500;2023-08-30T02:15:54;7.38;;;2.13;;
35418;SDS011;21525;41.240;16.500;2023-08-30T02:18:22;9.55;;;2.60;;
35418;SDS011;21525;41.240;16.500;2023-08-30T02:20:52;8.85;;;2.30;;
35418;SDS011;21525;41.240;16.500;2023-08-30T02:23:17;5.60;;;2.28;;
35418;SDS011;21525;41.240;16.500;2023-08-30T02:25:43;8.23;;;2.58;;
35418;SDS011;21525;41.240;16.500;2023-08-30T02:28:09;5.90;;;1.92;;
35418;SDS011;21525;41.240;16.500;2023-08-30T02:30:35;10.25;;;2.42;;
35418;SDS011;21525;41.240;16.500;2023-08-30T02:33:01;6.70;;;2.28;;
35418;SDS011;21525;41.240;16.500;2023-08-30T02:35:27;8.23;;;2.22;;
35418;SDS011;21525;41.240;16.500;2023-08-30T02:37:53;8.27;;;2.25;;
35418;SDS011;21525;41.240;16.500;2023-08-30T02:40:21;7.05;;;2.45;;
35418;SDS011;21525;41.240;16.500;2023-08-30T02:42:47;10.00;;;2.60;;
35418;SDS011;21525;41.240;16.500;2023-08-30T02:45:12;7.78;;;2.33;;
35418;SDS011;21525;41.240;16.500;2023-08-30T02:47:38;9.80;;;2.90;;
35418;SDS011;21525;41.240;16.500;2023-08-30T02:50:04;7.32;;;2.33;;
35418;SDS011;21525;41.240;16.500;2023-08-30T02:52:33;8.82;;;2.63;;
35418;SDS011;21525;41.240;16.500;2023-08-30T02:54:58;8.00;;;2.70;;
35418;SDS011;21525;41.240;16.500;2023-08-30T02:57:24;6.43;;;2.15;;
35418;SDS011;21525;41.240;16.500;2023-08-30T02:59:50;13.10;;;3.33;;
35418;SDS011;21525;41.240;16.500;2023-08-30T03:02:17;10.57;;;2.85;;
35418;SDS011;21525;41.240;16.500;2023-08-30T03:04:43;10.38;;;2.80;;
35418;SDS011;21525;41.240;16.500;2023-08-30T03:07:09;7.40;;;2.60;;
35418;SDS011;21525;41.240;16.500;2023-08-30T03:09:35;8.88;;;3.15;;
35418;SDS011;21525;41.240;16.500;2023-08-30T03:12:01;8.18;;;2.92;;
35418;SDS011;21525;41.240;16.500;2023-08-30T03:14:27;11.38;;;2.53;;
35418;SDS011;21525;41.240;16.500;2023-08-30T03:16:54;7.18;;;2.67;;
35418;SDS011;21525;41.240;16.500;2023-08-30T03:19:20;8.82;;;2.60;;
35418;SDS011;21525;41.240;16.500;2023-08-30T03:21:46;9.77;;;2.47;;
35418;SDS011;21525;41.240;16.500;2023-08-30T03:24:11;8.45;;;2.45;;
35418;SDS011;21525;41.240;16.500;2023-08-30T03:26:39;11.88;;;2.63;;
35418;SDS011;21525;41.240;16.500;2023-08-30T03:29:06;10.02;;;2.58;;
35418;SDS011;21525;41.240;16.500;2023-08-30T03:31:31;15.10;;;3.33;;
35418;SDS011;21525;41.240;16.500;2023-08-30T03:33:57;16.15;;;3.70;;
35418;SDS011;21525;41.240;16.500;2023-08-30T03:36:23;34.45;;;5.50;;
35418;SDS011;21525;41.240;16.500;2023-08-30T03:38:49;10.82;;;2.75;;
35418;SDS011;21525;41.240;16.500;2023-08-30T03:41:14;7.30;;;2.65;;
35418;SDS011;21525;41.240;16.500;2023-08-30T03:43:42;12.15;;;4.13;;
35418;SDS011;21525;41.240;16.500;2023-08-30T03:46:08;8.65;;;2.60;;
35418;SDS011;21525;41.240;16.500;2023-08-30T03:48:36;7.93;;;2.85;;
35418;SDS011;21525;41.240;16.500;2023-08-30T03:51:03;10.32;;;2.65;;
35418;SDS011;21525;41.240;16.500;2023-08-30T03:53:28;14.75;;;2.70;;
35418;SDS011;21525;41.240;16.500;2023-08-30T03:55:55;12.70;;;3.20;;
35418;SDS011;21525;41.240;16.500;2023-08-30T03:58:23;12.98;;;3.13;;
35418;SDS011;21525;41.240;16.500;2023-08-30T04:00:50;9.57;;;3.10;;
35418;SDS011;21525;41.240;16.500;2023-08-30T04:03:15;12.35;;;3.08;;
35418;SDS011;21525;41.240;16.500;2023-08-30T04:05:42;9.52;;;2.85;;
35418;SDS011;21525;41.240;16.500;2023-08-30T04:08:08;8.93;;;2.72;;
35418;SDS011;21525;41.240;16.500;2023-08-30T04:10:34;9.77;;;2.45;;
35418;SDS011;21525;41.240;16.500;2023-08-30T04:13:05;8.18;;;3.20;;
35418;SDS011;21525;41.240;16.500;2023-08-30T04:15:33;9.45;;;2.58;;
35418;SDS011;21525;41.240;16.500;2023-08-30T04:18:00;7.30;;;2.45;;
35418;SDS011;21525;41.240;16.500;2023-08-30T04:20:26;8.80;;;2.80;;
35418;SDS011;21525;41.240;16.500;2023-08-30T04:22:52;10.35;;;2.92;;
35418;SDS011;21525;41.240;16.500;2023-08-30T04:25:20;12.23;;;3.33;;
35418;SDS011;21525;41.240;16.500;2023-08-30T04:27:46;8.38;;;3.15;;
35418;SDS011;21525;41.240;16.500;2023-08-30T04:30:12;11.57;;;3.45;;
35418;SDS011;21525;41.240;16.500;2023-08-30T04:32:38;9.15;;;2.80;;
35418;SDS011;21525;41.240;16.500;2023-08-30T04:35:06;13.65;;;3.40;;
35418;SDS011;21525;41.240;16.500;2023-08-30T04:37:32;9.88;;;3.72;;
35418;SDS011;21525;41.240;16.500;2023-08-30T04:39:58;14.05;;;3.80;;
35418;SDS011;21525;41.240;16.500;2023-08-30T04:42:24;7.47;;;2.83;;
35418;SDS011;21525;41.240;16.500;2023-08-30T04:44:50;11.85;;;3.20;;
35418;SDS011;21525;41.240;16.500;2023-08-30T04:47:17;15.93;;;4.25;;
35418;SDS011;21525;41.240;16.500;2023-08-30T04:49:43;17.20;;;4.63;;
35418;SDS011;21525;41.240;16.500;2023-08-30T04:52:10;16.42;;;4.97;;
35418;SDS011;21525;41.240;16.500;2023-08-30T04:54:36;16.67;;;5.45;;
35418;SDS011;21525;41.240;16.500;2023-08-30T04:57:02;14.35;;;5.30;;
35418;SDS011;21525;41.240;16.500;2023-08-30T04:59:28;15.07;;;6.10;;
35418;SDS011;21525;41.240;16.500;2023-08-30T05:01:54;15.98;;;5.30;;
35418;SDS011;21525;41.240;16.500;2023-08-30T05:04:24;12.73;;;4.60;;
35418;SDS011;21525;41.240;16.500;2023-08-30T05:06:49;11.95;;;4.60;;
35418;SDS011;21525;41.240;16.500;2023-08-30T05:09:15;7.80;;;3.55;;
35418;SDS011;21525;41.240;16.500;2023-08-30T05:11:42;10.32;;;4.25;;
35418;SDS011;21525;41.240;16.500;2023-08-30T05:14:07;14.25;;;4.43;;
35418;SDS011;21525;41.240;16.500;2023-08-30T05:16:39;25.27;;;12.00;;
35418;SDS011;21525;41.240;16.500;2023-08-30T05:19:04;38.95;;;18.73;;
35418;SDS011;21525;41.240;16.500;2023-08-30T05:21:30;42.65;;;18.65;;
35418;SDS011;21525;41.240;16.500;2023-08-30T05:23:56;33.67;;;15.93;;
35418;SDS011;21525;41.240;16.500;2023-08-30T05:26:22;26.00;;;11.00;;
35418;SDS011;21525;41.240;16.500;2023-08-30T05:28:48;18.08;;;8.80;;
35418;SDS011;21525;41.240;16.500;2023-08-30T05:31:14;24.10;;;11.70;;
35418;SDS011;21525;41.240;16.500;2023-08-30T05:34:01;23.25;;;10.23;;
35418;SDS011;21525;41.240;16.500;2023-08-30T05:36:40;18.35;;;8.55;;
35418;SDS011;21525;41.240;16.500;2023-08-30T05:39:27;24.58;;;11.55;;
35418;SDS011;21525;41.240;16.500;2023-08-30T05:41:56;22.85;;;10.85;;
35418;SDS011;21525;41.240;16.500;2023-08-30T05:44:21;25.38;;;11.10;;
35418;SDS011;21525;41.240;16.500;2023-08-30T05:46:47;21.17;;;8.98;;
35418;SDS011;21525;41.240;16.500;2023-08-30T05:49:13;20.27;;;8.90;;
35418;SDS011;21525;41.240;16.500;2023-08-30T05:51:39;19.63;;;8.63;;
35418;SDS011;21525;41.240;16.500;2023-08-30T05:54:05;15.90;;;6.82;;
35418;SDS011;21525;41.240;16.500;2023-08-30T05:56:31;17.08;;;6.88;;
35418;SDS011;21525;41.240;16.500;2023-08-30T05:58:56;14.60;;;5.82;;
35418;SDS011;21525;41.240;16.500;2023-08-30T06:01:22;12.82;;;5.60;;
35418;SDS011;21525;41.240;16.500;2023-08-30T06:03:48;13.73;;;4.95;;
35418;SDS011;21525;41.240;16.500;2023-08-30T06:06:14;12.57;;;4.05;;
35418;SDS011;21525;41.240;16.500;2023-08-30T06:08:41;9.68;;;4.35;;
35418;SDS011;21525;41.240;16.500;2023-08-30T06:11:06;11.60;;;3.67;;
35418;SDS011;21525;41.240;16.500;2023-08-30T06:13:32;13.75;;;3.30;;
35418;SDS011;21525;41.240;16.500;2023-08-30T06:15:58;16.23;;;3.13;;
35418;SDS011;21525;41.240;16.500;2023-08-30T06:18:24;13.07;;;4.60;;
35418;SDS011;21525;41.240;16.500;2023-08-30T06:20:49;11.25;;;3.80;;
35418;SDS011;21525;41.240;16.500;2023-08-30T06:23:17;14.90;;;3.80;;
35418;SDS011;21525;41.240;16.500;2023-08-30T06:25:44;12.45;;;4.00;;
35418;SDS011;21525;41.240;16.500;2023-08-30T06:28:09;12.77;;;6.38;;
35418;SDS011;21525;41.240;16.500;2023-08-30T06:30:35;17.55;;;4.10;;
35418;SDS011;21525;41.240;16.500;2023-08-30T06:33:01;13.43;;;4.50;;
35418;SDS011;21525;41.240;16.500;2023-08-30T06:35:27;9.43;;;3.08;;
35418;SDS011;21525;41.240;16.500;2023-08-30T06:37:53;7.32;;;2.88;;
35418;SDS011;21525;41.240;16.500;2023-08-30T06:40:18;13.18;;;3.83;;
35418;SDS011;21525;41.240;16.500;2023-08-30T06:42:44;10.88;;;3.30;;
35418;SDS011;21525;41.240;16.500;2023-08-30T06:45:10;9.60;;;3.05;;
35418;SDS011;21525;41.240;16.500;2023-08-30T06:47:36;12.93;;;3.63;;
35418;SDS011;21525;41.240;16.500;2023-08-30T06:50:02;12.88;;;4.18;;
35418;SDS011;21525;41.240;16.500;2023-08-30T06:52:29;12.73;;;3.65;;
35418;SDS011;21525;41.240;16.500;2023-08-30T06:54:54;17.00;;;3.92;;
35418;SDS011;21525;41.240;16.500;2023-08-30T06:57:21;11.27;;;2.80;;
35418;SDS011;21525;41.240;16.500;2023-08-30T06:59:47;10.07;;;2.85;;
35418;SDS011;21525;41.240;16.500;2023-08-30T07:02:13;13.00;;;3.42;;
35418;SDS011;21525;41.240;16.500;2023-08-30T07:04:39;11.18;;;3.70;;
35418;SDS011;21525;41.240;16.500;2023-08-30T07:07:05;17.15;;;3.80;;
35418;SDS011;21525;41.240;16.500;2023-08-30T07:09:31;10.32;;;3.25;;
35418;SDS011;21525;41.240;16.500;2023-08-30T07:11:58;11.75;;;3.60;;
35418;SDS011;21525;41.240;16.500;2023-08-30T07:14:24;12.32;;;3.70;;
35418;SDS011;21525;41.240;16.500;2023-08-30T07:16:51;12.52;;;3.83;;
35418;SDS011;21525;41.240;16.500;2023-08-30T07:19:17;10.57;;;3.25;;
35418;SDS011;21525;41.240;16.500;2023-08-30T07:21:43;10.27;;;3.50;;
35418;SDS011;21525;41.240;16.500;2023-08-30T07:24:09;8.90;;;3.17;;
35418;SDS011;21525;41.240;16.500;2023-08-30T07:26:35;12.30;;;3.33;;
35418;SDS011;21525;41.240;16.500;2023-08-30T07:29:01;14.00;;;3.35;;
35418;SDS011;21525;41.240;16.500;2023-08-30T07:31:30;9.27;;;2.55;;
35418;SDS011;21525;41.240;16.500;2023-08-30T07:33:57;8.93;;;2.50;;
35418;SDS011;21525;41.240;16.500;2023-08-30T07:36:25;9.07;;;3.05;;
35418;SDS011;21525;41.240;16.500;2023-08-30T07:38:51;10.02;;;2.67;;
35418;SDS011;21525;41.240;16.500;2023-08-30T07:41:17;8.05;;;2.88;;
35418;SDS011;21525;41.240;16.500;2023-08-30T07:43:43;8.50;;;2.30;;
35418;SDS011;21525;41.240;16.500;2023-08-30T07:46:09;9.35;;;2.90;;
35418;SDS011;21525;41.240;16.500;2023-08-30T07:48:34;9.07;;;2.72;;
35418;SDS011;21525;41.240;16.500;2023-08-30T07:51:00;5.13;;;2.03;;
35418;SDS011;21525;41.240;16.500;2023-08-30T07:53:26;7.28;;;2.70;;
35418;SDS011;21525;41.240;16.500;2023-08-30T07:55:51;8.13;;;2.40;;
35418;SDS011;21525;41.240;16.500;2023-08-30T07:58:17;9.55;;;2.60;;
35418;SDS011;21525;41.240;16.500;2023-08-30T08:00:43;12.82;;;2.85;;
35418;SDS011;21525;41.240;16.500;2023-08-30T08:03:09;8.57;;;2.40;;
35418;SDS011;21525;41.240;16.500;2023-08-30T08:05:37;8.55;;;2.45;;
35418;SDS011;21525;41.240;16.500;2023-08-30T08:08:03;10.57;;;2.80;;
35418;SDS011;21525;41.240;16.500;2023-08-30T08:10:33;11.52;;;3.25;;
35418;SDS011;21525;41.240;16.500;2023-08-30T08:12:59;10.52;;;2.50;;
35418;SDS011;21525;41.240;16.500;2023-08-30T08:15:25;9.13;;;2.45;;
35418;SDS011;21525;41.240;16.500;2023-08-30T08:17:51;7.65;;;2.35;;
35418;SDS011;21525;41.240;16.500;2023-08-30T08:20:17;8.40;;;3.08;;
35418;SDS011;21525;41.240;16.500;2023-08-30T08:22:43;5.60;;;2.30;;
35418;SDS011;21525;41.240;16.500;2023-08-30T08:25:08;8.27;;;2.33;;
35418;SDS011;21525;41.240;16.500;2023-08-30T08:27:35;7.75;;;2.53;;
35418;SDS011;21525;41.240;16.500;2023-08-30T08:30:03;6.85;;;2.70;;
35418;SDS011;21525;41.240;16.500;2023-08-30T08:32:29;6.32;;;2.03;;
35418;SDS011;21525;41.240;16.500;2023-08-30T08:34:59;8.85;;;2.47;;
35418;SDS011;21525;41.240;16.500;2023-08-30T08:37:24;5.90;;;2.35;;
35418;SDS011;21525;41.240;16.500;2023-08-30T08:39:50;6.15;;;2.33;;
35418;SDS011;21525;41.240;16.500;2023-08-30T08:42:17;6.28;;;2.25;;
35418;SDS011;21525;41.240;16.500;2023-08-30T08:44:47;13.43;;;7.78;;
35418;SDS011;21525;41.240;16.500;2023-08-30T08:47:19;8.02;;;3.08;;
35418;SDS011;21525;41.240;16.500;2023-08-30T08:49:46;12.65;;;3.17;;
35418;SDS011;21525;41.240;16.500;2023-08-30T08:52:13;7.20;;;2.67;;
35418;SDS011;21525;41.240;16.500;2023-08-30T08:54:40;11.30;;;2.67;;
35418;SDS011;21525;41.240;16.500;2023-08-30T08:57:07;7.28;;;2.05;;
35418;SDS011;21525;41.240;16.500;2023-08-30T08:59:32;7.30;;;1.85;;
35418;SDS011;21525;41.240;16.500;2023-08-30T09:02:02;6.28;;;2.22;;
35418;SDS011;21525;41.240;16.500;2023-08-30T09:04:32;10.80;;;2.28;;
35418;SDS011;21525;41.240;16.500;2023-08-30T09:06:58;13.65;;;2.90;;
35418;SDS011;21525;41.240;16.500;2023-08-30T09:09:26;9.60;;;2.05;;
35418;SDS011;21525;41.240;16.500;2023-08-30T09:11:52;9.23;;;2.38;;
35418;SDS011;21525;41.240;16.500;2023-08-30T09:14:18;5.25;;;1.88;;
35418;SDS011;21525;41.240;16.500;2023-08-30T09:16:56;5.80;;;1.83;;
35418;SDS011;21525;41.240;16.500;2023-08-30T09:19:28;4.03;;;2.22;;
35418;SDS011;21525;41.240;16.500;2023-08-30T09:21:56;7.10;;;2.45;;
35418;SDS011;21525;41.240;16.500;2023-08-30T09:24:23;5.97;;;2.10;;
35418;SDS011;21525;41.240;16.500;2023-08-30T09:26:50;4.15;;;1.90;;
35418;SDS011;21525;41.240;16.500;2023-08-30T09:29:18;7.63;;;3.07;;
35418;SDS011;21525;41.240;16.500;2023-08-30T09:31:45;9.40;;;2.50;;
35418;SDS011;21525;41.240;16.500;2023-08-30T09:34:11;14.65;;;2.72;;
35418;SDS011;21525;41.240;16.500;2023-08-30T09:36:37;14.02;;;3.00;;
35418;SDS011;21525;41.240;16.500;2023-08-30T09:39:08;4.50;;;2.13;;
35418;SDS011;21525;41.240;16.500;2023-08-30T09:41:36;7.88;;;2.15;;
35418;SDS011;21525;41.240;16.500;2023-08-30T09:44:06;9.75;;;1.90;;
35418;SDS011;21525;41.240;16.500;2023-08-30T09:46:43;5.57;;;1.80;;
35418;SDS011;21525;41.240;16.500;2023-08-30T09:49:11;7.55;;;2.00;;
35418;SDS011;21525;41.240;16.500;2023-08-30T09:51:38;6.07;;;1.73;;
35418;SDS011;21525;41.240;16.500;2023-08-30T09:54:10;5.20;;;2.05;;
35418;SDS011;21525;41.240;16.500;2023-08-30T09:56:41;8.00;;;2.30;;
35418;SDS011;21525;41.240;16.500;2023-08-30T09:59:09;8.43;;;2.35;;
35418;SDS011;21525;41.240;16.500;2023-08-30T10:01:37;6.97;;;1.95;;
35418;SDS011;21525;41.240;16.500;2023-08-30T10:04:03;8.68;;;3.05;;
35418;SDS011;21525;41.240;16.500;2023-08-30T10:06:31;7.72;;;2.25;;
35418;SDS011;21525;41.240;16.500;2023-08-30T10:08:58;5.70;;;1.77;;
35418;SDS011;21525;41.240;16.500;2023-08-30T10:11:25;5.40;;;1.98;;
35418;SDS011;21525;41.240;16.500;2023-08-30T10:13:54;6.22;;;1.80;;
35418;SDS011;21525;41.240;16.500;2023-08-30T10:16:22;4.97;;;1.80;;
35418;SDS011;21525;41.240;16.500;2023-08-30T10:18:52;4.40;;;1.85;;
35418;SDS011;21525;41.240;16.500;2023-08-30T10:21:20;7.88;;;2.20;;
35418;SDS011;21525;41.240;16.500;2023-08-30T10:23:48;4.57;;;2.00;;
35418;SDS011;21525;41.240;16.500;2023-08-30T10:26:17;8.25;;;1.90;;
35418;SDS011;21525;41.240;16.500;2023-08-30T10:28:43;7.35;;;2.13;;
35418;SDS011;21525;41.240;16.500;2023-08-30T10:31:10;6.22;;;2.00;;
35418;SDS011;21525;41.240;16.500;2023-08-30T10:33:54;7.50;;;2.50;;
35418;SDS011;21525;41.240;16.500;2023-08-30T10:36:24;10.40;;;2.50;;
35418;SDS011;21525;41.240;16.500;2023-08-30T10:38:51;9.30;;;2.78;;
35418;SDS011;21525;41.240;16.500;2023-08-30T10:41:24;5.03;;;1.83;;
35418;SDS011;21525;41.240;16.500;2023-08-30T10:43:51;4.35;;;2.17;;
35418;SDS011;21525;41.240;16.500;2023-08-30T10:46:39;6.83;;;2.20;;
35418;SDS011;21525;41.240;16.500;2023-08-30T10:49:12;17.02;;;2.70;;
35418;SDS011;21525;41.240;16.500;2023-08-30T10:51:41;91.57;;;9.45;;
35418;SDS011;21525;41.240;16.500;2023-08-30T10:54:14;68.20;;;7.53;;
35418;SDS011;21525;41.240;16.500;2023-08-30T10:56:47;21.13;;;2.45;;
35418;SDS011;21525;41.240;16.500;2023-08-30T10:59:17;55.70;;;7.72;;
35418;SDS011;21525;41.240;16.500;2023-08-30T11:01:47;11.13;;;2.63;;
35418;SDS011;21525;41.240;16.500;2023-08-30T11:04:15;6.03;;;1.83;;
35418;SDS011;21525;41.240;16.500;2023-08-30T11:06:43;7.25;;;2.10;;
35418;SDS011;21525;41.240;16.500;2023-08-30T11:09:13;6.45;;;2.05;;
35418;SDS011;21525;41.240;16.500;2023-08-30T11:11:43;5.13;;;1.77;;
35418;SDS011;21525;41.240;16.500;2023-08-30T11:14:09;7.03;;;2.10;;
35418;SDS011;21525;41.240;16.500;2023-08-30T11:16:36;6.65;;;2.25;;
35418;SDS011;21525;41.240;16.500;2023-08-30T11:19:06;5.65;;;1.73;;
35418;SDS011;21525;41.240;16.500;2023-08-30T11:21:34;8.68;;;2.58;;
35418;SDS011;21525;41.240;16.500;2023-08-30T11:24:03;4.97;;;2.17;;
35418;SDS011;21525;41.240;16.500;2023-08-30T11:26:29;6.28;;;2.15;;
35418;SDS011;21525;41.240;16.500;2023-08-30T11:28:55;4.13;;;1.42;;
35418;SDS011;21525;41.240;16.500;2023-08-30T11:31:24;5.45;;;1.83;;
35418;SDS011;21525;41.240;16.500;2023-08-30T11:33:56;8.52;;;3.10;;
35418;SDS011;21525;41.240;16.500;2023-08-30T11:36:24;4.68;;;1.42;;
35418;SDS011;21525;41.240;16.500;2023-08-30T11:38:54;7.13;;;1.20;;
35418;SDS011;21525;41.240;16.500;2023-08-30T11:41:20;6.85;;;2.78;;
35418;SDS011;21525;41.240;16.500;2023-08-30T11:43:49;6.47;;;2.60;;
35418;SDS011;21525;41.240;16.500;2023-08-30T11:46:16;4.18;;;1.85;;
35418;SDS011;21525;41.240;16.500;2023-08-30T11:48:42;5.93;;;1.92;;
35418;SDS011;21525;41.240;16.500;2023-08-30T11:51:10;3.92;;;1.85;;
35418;SDS011;21525;41.240;16.500;2023-08-30T11:53:36;6.32;;;1.75;;
35418;SDS011;21525;41.240;16.500;2023-08-30T11:56:03;7.05;;;1.83;;
35418;SDS011;21525;41.240;16.500;2023-08-30T11:58:33;6.90;;;1.65;;
35418;SDS011;21525;41.240;16.500;2023-08-30T12:01:01;4.47;;;1.60;;
35418;SDS011;21525;41.240;16.500;2023-08-30T12:03:27;5.63;;;1.70;;
35418;SDS011;21525;41.240;16.500;2023-08-30T12:05:56;4.97;;;1.80;;
35418;SDS011;21525;41.240;16.500;2023-08-30T12:08:26;9.48;;;2.78;;
35418;SDS011;21525;41.240;16.500;2023-08-30T12:10:53;8.77;;;2.90;;
35418;SDS011;21525;41.240;16.500;2023-08-30T12:15:50;9.15;;;2.92;;
35418;SDS011;21525;41.240;16.500;2023-08-30T12:18:29;9.10;;;3.38;;
35418;SDS011;21525;41.240;16.500;2023-08-30T12:20:58;14.60;;;5.18;;
35418;SDS011;21525;41.240;16.500;2023-08-30T12:23:26;10.88;;;2.97;;
35418;SDS011;21525;41.240;16.500;2023-08-30T12:26:00;6.90;;;2.60;;
35418;SDS011;21525;41.240;16.500;2023-08-30T12:28:27;10.55;;;2.53;;
35418;SDS011;21525;41.240;16.500;2023-08-30T12:30:53;9.43;;;2.60;;
35418;SDS011;21525;41.240;16.500;2023-08-30T12:33:20;6.13;;;2.30;;
35418;SDS011;21525;41.240;16.500;2023-08-30T12:35:46;8.68;;;2.00;;
35418;SDS011;21525;41.240;16.500;2023-08-30T12:38:11;8.73;;;2.40;;
35418;SDS011;21525;41.240;16.500;2023-08-30T12:40:37;5.93;;;2.22;;
35418;SDS011;21525;41.240;16.500;2023-08-30T12:43:04;8.40;;;2.58;;
35418;SDS011;21525;41.240;16.500;2023-08-30T12:45:29;6.85;;;2.30;;
35418;SDS011;21525;41.240;16.500;2023-08-30T12:47:55;8.13;;;2.17;;
35418;SDS011;21525;41.240;16.500;2023-08-30T12:50:24;6.70;;;2.42;;
35418;SDS011;21525;41.240;16.500;2023-08-30T12:52:50;9.60;;;2.10;;
35418;SDS011;21525;41.240;16.500;2023-08-30T12:55:15;9.85;;;2.42;;
35418;SDS011;21525;41.240;16.500;2023-08-30T12:57:42;8.85;;;2.53;;
35418;SDS011;21525;41.240;16.500;2023-08-30T13:00:12;10.23;;;2.92;;
35418;SDS011;21525;41.240;16.500;2023-08-30T13:02:38;7.45;;;2.47;;
35418;SDS011;21525;41.240;16.500;2023-08-30T13:05:04;7.88;;;2.13;;
35418;SDS011;21525;41.240;16.500;2023-08-30T13:07:30;7.38;;;3.03;;
35418;SDS011;21525;41.240;16.500;2023-08-30T13:09:56;10.02;;;2.72;;
35418;SDS011;21525;41.240;16.500;2023-08-30T13:12:22;7.28;;;2.22;;
35418;SDS011;21525;41.240;16.500;2023-08-30T13:14:48;5.65;;;1.95;;
35418;SDS011;21525;41.240;16.500;2023-08-30T13:17:14;7.90;;;2.47;;
35418;SDS011;21525;41.240;16.500;2023-08-30T13:22:08;6.32;;;2.17;;
35418;SDS011;21525;41.240;16.500;2023-08-30T13:24:35;10.52;;;2.97;;
35418;SDS011;21525;41.240;16.500;2023-08-30T13:27:01;7.50;;;2.33;;
35418;SDS011;21525;41.240;16.500;2023-08-30T13:29:28;8.50;;;2.80;;
35418;SDS011;21525;41.240;16.500;2023-08-30T13:31:54;9.18;;;2.55;;
35418;SDS011;21525;41.240;16.500;2023-08-30T13:34:20;8.00;;;2.15;;
35418;SDS011;21525;41.240;16.500;2023-08-30T13:37:05;9.77;;;2.50;;
35418;SDS011;21525;41.240;16.500;2023-08-30T13:39:31;7.60;;;2.47;;
35418;SDS011;21525;41.240;16.500;2023-08-30T13:41:57;9.95;;;2.47;;
35418;SDS011;21525;41.240;16.500;2023-08-30T13:44:23;6.93;;;2.30;;
35418;SDS011;21525;41.240;16.500;2023-08-30T13:46:51;10.50;;;2.58;;
35418;SDS011;21525;41.240;16.500;2023-08-30T13:49:45;7.65;;;2.28;;
35418;SDS011;21525;41.240;16.500;2023-08-30T13:52:11;6.43;;;2.10;;
35418;SDS011;21525;41.240;16.500;2023-08-30T13:54:37;8.75;;;2.40;;
35418;SDS011;21525;41.240;16.500;2023-08-30T13:57:03;7.10;;;2.30;;
35418;SDS011;21525;41.240;16.500;2023-08-30T13:59:28;8.20;;;2.15;;
35418;SDS011;21525;41.240;16.500;2023-08-30T14:01:55;7.85;;;2.20;;
35418;SDS011;21525;41.240;16.500;2023-08-30T14:04:23;9.70;;;2.47;;
35418;SDS011;21525;41.240;16.500;2023-08-30T14:06:51;8.02;;;2.10;;
35418;SDS011;21525;41.240;16.500;2023-08-30T14:09:17;5.35;;;2.08;;
35418;SDS011;21525;41.240;16.500;2023-08-30T14:11:43;9.05;;;2.35;;
35418;SDS011;21525;41.240;16.500;2023-08-30T14:14:09;12.02;;;2.47;;
35418;SDS011;21525;41.240;16.500;2023-08-30T14:16:35;12.23;;;2.47;;
35418;SDS011;21525;41.240;16.500;2023-08-30T14:19:02;9.27;;;2.20;;
35418;SDS011;21525;41.240;16.500;2023-08-30T14:21:30;8.70;;;2.70;;
35418;SDS011;21525;41.240;16.500;2023-08-30T14:23:56;9.60;;;2.70;;
35418;SDS011;21525;41.240;16.500;2023-08-30T14:26:22;9.30;;;2.80;;
35418;SDS011;21525;41.240;16.500;2023-08-30T14:28:48;8.10;;;2.70;;
35418;SDS011;21525;41.240;16.500;2023-08-30T14:31:13;8.93;;;2.45;;
35418;SDS011;21525;41.240;16.500;2023-08-30T14:33:42;11.05;;;2.70;;
35418;SDS011;21525;41.240;16.500;2023-08-30T14:36:12;10.40;;;2.38;;
35418;SDS011;21525;41.240;16.500;2023-08-30T14:38:38;8.13;;;2.28;;